createdAt,value
2022-07-29T00:00:40.172Z,7.35
2022-07-29T00:03:07.732Z,11.05
2022-07-29T00:05:36.604Z,10.20
2022-07-29T00:08:06.344Z,14.15
2022-07-29T00:10:37.344Z,7.43
2022-07-29T00:13:04.840Z,5.35
2022-07-29T00:15:32.374Z,5.97
2022-07-29T00:17:59.909Z,5.32
2022-07-29T00:20:27.440Z,7.78
2022-07-29T00:22:56.315Z,7.22
2022-07-29T00:25:23.846Z,4.60
2022-07-29T00:27:51.401Z,4.60
2022-07-29T00:30:18.924Z,5.88
2022-07-29T00:32:46.451Z,8.82
2022-07-29T00:35:31.590Z,5.47
2022-07-29T00:38:02.412Z,4.07
2022-07-29T00:40:29.959Z,6.60
2022-07-29T00:42:57.526Z,5.47
2022-07-29T00:45:27.432Z,5.90
2022-07-29T00:47:55.126Z,3.80
2022-07-29T00:50:22.890Z,8.52
2022-07-29T00:52:51.076Z,7.38
2022-07-29T00:55:20.109Z,11.38
2022-07-29T00:57:48.317Z,8.63
2022-07-29T01:00:20.429Z,9.07
2022-07-29T01:02:49.359Z,7.65
2022-07-29T01:05:19.648Z,5.13
2022-07-29T01:07:48.560Z,7.65
2022-07-29T01:10:17.942Z,8.40
2022-07-29T01:12:50.026Z,7.60
2022-07-29T01:15:18.237Z,5.40
2022-07-29T01:17:53.284Z,6.18
2022-07-29T01:20:31.674Z,8.55
2022-07-29T01:23:12.261Z,9.00
2022-07-29T01:26:05.954Z,9.35
2022-07-29T01:29:00.590Z,5.70
2022-07-29T01:31:51.359Z,7.97
2022-07-29T01:34:33.033Z,8.85
2022-07-29T01:37:09.188Z,6.53
2022-07-29T01:39:39.313Z,8.73
2022-07-29T01:42:12.020Z,6.63
2022-07-29T01:44:50.323Z,6.45
2022-07-29T01:47:22.301Z,5.82
2022-07-29T01:49:53.177Z,10.15
2022-07-29T01:52:25.534Z,8.77
2022-07-29T01:54:57.132Z,15.48
2022-07-29T01:57:30.329Z,11.23
2022-07-29T02:00:01.498Z,5.95
2022-07-29T02:02:31.436Z,5.82
2022-07-29T02:05:01.602Z,6.15
2022-07-29T02:07:33.856Z,6.93
2022-07-29T02:10:03.717Z,6.43
2022-07-29T02:12:33.661Z,7.88
2022-07-29T02:15:06.376Z,8.07
2022-07-29T02:17:40.981Z,6.63
2022-07-29T02:20:11.126Z,7.93
2022-07-29T02:22:40.968Z,5.15
2022-07-29T02:25:14.226Z,4.70
2022-07-29T02:27:43.622Z,5.05
2022-07-29T02:30:14.630Z,5.13
2022-07-29T02:32:44.307Z,4.50
2022-07-29T02:35:16.370Z,4.97
2022-07-29T02:37:46.574Z,5.20
2022-07-29T02:40:17.235Z,7.60
2022-07-29T02:42:47.328Z,13.43
2022-07-29T02:45:16.195Z,9.15
2022-07-29T02:47:45.872Z,11.45
2022-07-29T02:50:17.441Z,13.45
2022-07-29T02:52:46.952Z,18.35
2022-07-29T02:55:21.067Z,21.88
2022-07-29T02:57:53.875Z,20.33
2022-07-29T03:00:28.882Z,17.13
2022-07-29T03:03:00.468Z,12.40
2022-07-29T03:05:29.279Z,11.80
2022-07-29T03:07:59.090Z,9.50
2022-07-29T03:10:27.242Z,12.98
2022-07-29T03:12:57.181Z,13.07
2022-07-29T03:15:26.738Z,15.73
2022-07-29T03:17:54.885Z,13.57
2022-07-29T03:20:22.872Z,12.52
2022-07-29T03:22:50.772Z,19.52
2022-07-29T03:25:20.739Z,17.33
2022-07-29T03:27:49.776Z,20.05
2022-07-29T03:30:21.591Z,14.10
2022-07-29T03:32:52.526Z,21.05
2022-07-29T03:35:20.487Z,18.83
2022-07-29T03:37:48.309Z,23.27
2022-07-29T03:40:23.915Z,22.95
2022-07-29T03:42:55.182Z,18.15
2022-07-29T03:45:23.994Z,19.48
2022-07-29T03:48:00.653Z,15.32
2022-07-29T03:50:30.581Z,22.25
2022-07-29T03:52:58.358Z,20.45
2022-07-29T03:55:26.456Z,24.52
2022-07-29T03:57:54.856Z,23.10
2022-07-29T04:00:23.511Z,24.13
2022-07-29T04:02:51.929Z,25.27
2022-07-29T04:05:21.093Z,22.65
2022-07-29T04:07:49.510Z,21.25
2022-07-29T04:10:30.335Z,23.02
2022-07-29T04:13:00.386Z,21.42
2022-07-29T04:15:31.457Z,22.65
2022-07-29T04:17:59.501Z,20.30
2022-07-29T04:20:28.533Z,22.60
2022-07-29T04:22:56.158Z,23.33
2022-07-29T04:25:23.978Z,19.73
2022-07-29T04:28:04.026Z,18.30
2022-07-29T04:30:33.097Z,21.55
2022-07-29T04:33:01.703Z,18.20
2022-07-29T04:35:30.938Z,19.08
2022-07-29T04:38:07.024Z,11.75
2022-07-29T04:40:35.502Z,22.77
2022-07-29T04:43:06.243Z,15.45
2022-07-29T04:45:33.758Z,16.88
2022-07-29T04:48:01.263Z,21.27
2022-07-29T04:50:30.308Z,18.48
2022-07-29T04:52:57.816Z,20.27
2022-07-29T04:55:25.842Z,20.98
2022-07-29T04:57:53.362Z,17.83
2022-07-29T05:00:20.876Z,16.08
2022-07-29T05:02:48.416Z,14.02
2022-07-29T05:05:15.921Z,11.50
2022-07-29T05:07:44.791Z,16.05
2022-07-29T05:10:12.670Z,18.30
2022-07-29T05:12:40.182Z,14.27
2022-07-29T05:15:08.836Z,18.75
2022-07-29T05:17:36.365Z,17.50
2022-07-29T05:20:04.180Z,18.55
2022-07-29T05:22:31.733Z,10.57
2022-07-29T05:25:03.282Z,10.30
2022-07-29T05:27:34.512Z,15.40
2022-07-29T05:30:02.012Z,14.32
2022-07-29T05:32:29.763Z,18.30
2022-07-29T05:34:57.269Z,16.73
2022-07-29T05:37:24.804Z,14.93
2022-07-29T05:39:56.735Z,11.52
2022-07-29T05:42:31.640Z,7.19
2022-07-29T05:44:59.227Z,17.30
2022-07-29T05:47:26.881Z,13.88
2022-07-29T05:49:54.916Z,14.32
2022-07-29T05:52:23.101Z,18.13
2022-07-29T05:54:50.646Z,17.25
2022-07-29T05:57:19.258Z,17.42
2022-07-29T05:59:48.969Z,15.45
2022-07-29T06:02:17.392Z,18.45
2022-07-29T06:04:45.655Z,13.18
2022-07-29T06:07:13.236Z,17.95
2022-07-29T06:09:40.847Z,16.25
2022-07-29T06:12:08.592Z,12.95
2022-07-29T06:14:37.049Z,8.85
2022-07-29T06:17:06.410Z,8.73
2022-07-29T06:19:36.313Z,9.93
2022-07-29T06:22:04.182Z,21.63
2022-07-29T06:24:31.769Z,27.90
2022-07-29T06:26:59.503Z,25.20
2022-07-29T06:29:27.073Z,17.83
2022-07-29T06:31:54.613Z,25.15
2022-07-29T06:34:23.480Z,19.15
2022-07-29T06:36:51.477Z,28.35
2022-07-29T06:39:20.345Z,34.53
2022-07-29T06:41:49.795Z,25.67
2022-07-29T06:44:17.767Z,13.85
2022-07-29T06:46:45.733Z,10.95
2022-07-29T06:49:14.914Z,9.43
2022-07-29T06:51:43.821Z,13.65
2022-07-29T06:54:11.340Z,10.70
2022-07-29T06:56:42.080Z,18.73
2022-07-29T06:59:11.360Z,16.55
2022-07-29T07:01:39.446Z,18.08
2022-07-29T07:04:07.626Z,16.30
2022-07-29T07:06:35.425Z,16.70
2022-07-29T07:09:04.758Z,15.20
2022-07-29T07:11:32.519Z,15.02
2022-07-29T07:14:03.556Z,15.35
2022-07-29T07:16:32.208Z,13.90
2022-07-29T07:19:00.079Z,13.00
2022-07-29T07:21:30.307Z,10.52
2022-07-29T07:23:58.208Z,12.80
2022-07-29T07:26:27.970Z,8.38
2022-07-29T07:28:55.510Z,5.78
2022-07-29T07:31:23.344Z,5.75
2022-07-29T07:33:50.860Z,8.07
2022-07-29T07:36:18.330Z,11.07
2022-07-29T07:38:45.804Z,9.65
2022-07-29T07:41:13.260Z,15.80
2022-07-29T07:43:42.330Z,14.80
2022-07-29T07:46:09.895Z,12.38
2022-07-29T07:48:37.520Z,14.27
2022-07-29T07:51:05.116Z,7.53
2022-07-29T07:53:32.707Z,10.02
2022-07-29T07:56:10.419Z,6.28
2022-07-29T07:58:39.386Z,9.27
2022-07-29T08:01:08.465Z,12.98
2022-07-29T08:03:36.288Z,10.88
2022-07-29T08:06:04.354Z,11.18
2022-07-29T08:08:31.814Z,9.23
2022-07-29T08:11:00.603Z,8.10
2022-07-29T08:13:31.355Z,13.05
2022-07-29T08:16:01.167Z,8.75
2022-07-29T08:18:32.627Z,10.40
2022-07-29T08:21:00.737Z,13.70
2022-07-29T08:23:45.742Z,15.90
2022-07-29T08:26:16.663Z,18.50
2022-07-29T08:28:46.855Z,16.80
2022-07-29T08:31:15.316Z,14.13
2022-07-29T08:33:44.563Z,9.05
2022-07-29T08:36:13.943Z,7.03
2022-07-29T08:38:41.416Z,7.43
2022-07-29T08:41:09.094Z,7.10
2022-07-29T08:43:38.317Z,10.00
2022-07-29T08:46:06.276Z,7.32
2022-07-29T08:48:35.222Z,8.18
2022-07-29T08:51:04.754Z,8.10
2022-07-29T08:53:33.769Z,9.25
2022-07-29T08:56:01.618Z,7.95
2022-07-29T08:58:36.558Z,6.78
2022-07-29T09:01:06.844Z,5.43
2022-07-29T09:03:38.665Z,8.88
2022-07-29T09:06:07.690Z,7.63
2022-07-29T09:08:35.754Z,11.57
2022-07-29T09:11:05.390Z,9.52
2022-07-29T09:13:33.424Z,13.85
2022-07-29T09:16:04.479Z,14.43
2022-07-29T09:18:36.607Z,12.05
2022-07-29T09:21:22.894Z,17.25
2022-07-29T09:24:08.624Z,18.23
2022-07-29T09:26:40.449Z,20.08
2022-07-29T09:29:11.662Z,17.58
2022-07-29T09:31:41.104Z,14.27
2022-07-29T09:34:09.331Z,13.52
2022-07-29T09:36:41.314Z,17.95
2022-07-29T09:39:10.228Z,17.58
2022-07-29T09:41:48.449Z,19.05
2022-07-29T09:44:16.661Z,17.00
2022-07-29T09:46:56.070Z,19.92
2022-07-29T09:49:23.805Z,20.75
2022-07-29T09:52:01.917Z,14.00
2022-07-29T09:54:35.393Z,20.33
2022-07-29T09:57:02.920Z,18.83
2022-07-29T09:59:30.388Z,25.92
2022-07-29T10:01:58.671Z,24.48
2022-07-29T10:04:37.904Z,18.02
2022-07-29T10:07:05.978Z,18.08
2022-07-29T10:09:35.258Z,15.05
2022-07-29T10:12:11.847Z,15.93
2022-07-29T10:14:40.208Z,19.00
2022-07-29T10:17:09.024Z,12.27
2022-07-29T10:19:37.895Z,17.13
2022-07-29T10:22:07.349Z,17.60
2022-07-29T10:24:38.215Z,19.35
2022-07-29T10:27:07.787Z,20.55
2022-07-29T10:29:36.683Z,20.05
2022-07-29T10:32:31.936Z,13.23
2022-07-29T10:35:29.027Z,18.73
2022-07-29T10:38:29.240Z,23.05
2022-07-29T10:41:26.222Z,25.13
2022-07-29T10:43:56.375Z,14.52
2022-07-29T10:46:25.672Z,20.10
2022-07-29T10:49:15.745Z,24.15
2022-07-29T10:52:03.559Z,27.05
2022-07-29T10:54:45.991Z,26.42
2022-07-29T10:57:21.411Z,20.75
2022-07-29T11:00:29.912Z,23.23
2022-07-29T11:02:59.189Z,27.90
2022-07-29T11:05:32.226Z,24.85
2022-07-29T11:08:26.442Z,23.17
2022-07-29T11:11:34.905Z,27.00
2022-07-29T11:14:03.853Z,21.40
2022-07-29T11:17:06.250Z,20.73
2022-07-29T11:19:35.771Z,18.35
2022-07-29T11:22:03.888Z,14.30
2022-07-29T11:24:34.849Z,20.60
2022-07-29T11:27:18.349Z,21.52
2022-07-29T11:29:54.027Z,20.33
2022-07-29T11:32:24.177Z,21.88
2022-07-29T11:35:18.126Z,22.13
2022-07-29T11:40:34.089Z,21.50
2022-07-29T11:43:01.602Z,21.60
2022-07-29T11:45:48.586Z,17.55
2022-07-29T11:51:13.297Z,16.63
2022-07-29T11:53:41.502Z,15.07
2022-07-29T11:56:17.076Z,12.10
2022-07-29T11:58:44.761Z,8.88
2022-07-29T12:01:19.279Z,6.03
2022-07-29T12:03:46.855Z,6.25
2022-07-29T12:06:17.468Z,5.65
2022-07-29T12:07:01.664Z,18.95
2022-07-29T12:08:47.557Z,4.78
2022-07-29T12:11:20.958Z,4.45
2022-07-29T12:13:49.939Z,3.97
2022-07-29T12:16:27.961Z,3.80
2022-07-29T12:18:59.469Z,2.85
2022-07-29T12:21:29.024Z,3.75
2022-07-29T12:24:05.973Z,3.15
2022-07-29T12:26:37.508Z,3.97
2022-07-29T12:29:11.344Z,3.58
2022-07-29T12:31:45.466Z,3.92
2022-07-29T12:34:13.765Z,6.47
2022-07-29T12:36:42.214Z,6.47
2022-07-29T12:39:10.159Z,8.55
2022-07-29T12:41:37.757Z,8.38
2022-07-29T12:44:05.698Z,8.02
2022-07-29T12:46:33.300Z,8.50
2022-07-29T12:49:04.172Z,5.30
2022-07-29T12:51:33.006Z,8.88
2022-07-29T12:54:05.628Z,7.57
2022-07-29T12:56:42.616Z,9.02
2022-07-29T12:59:16.216Z,9.45
2022-07-29T13:01:43.946Z,8.63
2022-07-29T13:04:12.857Z,12.93
2022-07-29T13:06:42.584Z,13.75
2022-07-29T13:09:15.369Z,7.32
2022-07-29T13:11:48.335Z,4.47
2022-07-29T13:14:31.979Z,6.38
2022-07-29T13:17:03.992Z,13.15
2022-07-29T13:19:38.776Z,10.85
2022-07-29T13:22:06.763Z,18.45
2022-07-29T13:24:34.346Z,20.00
2022-07-29T13:27:01.884Z,13.63
2022-07-29T13:29:33.301Z,8.52
2022-07-29T13:32:01.125Z,6.38
2022-07-29T13:34:29.215Z,14.25
2022-07-29T13:36:58.048Z,14.90
2022-07-29T13:39:25.540Z,11.50
2022-07-29T13:41:57.487Z,14.15
2022-07-29T13:44:25.284Z,6.80
2022-07-29T13:46:52.804Z,8.65
2022-07-29T13:49:20.341Z,4.53
2022-07-29T13:51:47.883Z,5.68
2022-07-29T13:54:16.839Z,3.80
2022-07-29T13:56:44.375Z,6.97
2022-07-29T13:59:14.495Z,8.45
2022-07-29T14:01:43.016Z,4.63
2022-07-29T14:04:12.278Z,7.32
2022-07-29T14:06:40.608Z,9.15
2022-07-29T14:09:09.568Z,10.18
2022-07-29T14:11:39.296Z,8.63
2022-07-29T14:14:06.958Z,10.50
2022-07-29T14:16:37.084Z,9.98
2022-07-29T14:19:08.145Z,6.93
2022-07-29T14:21:36.538Z,5.32
2022-07-29T14:24:05.112Z,4.25
2022-07-29T14:26:46.974Z,8.35
2022-07-29T14:29:14.550Z,5.97
2022-07-29T14:31:43.976Z,10.77
2022-07-29T14:34:11.804Z,4.82
2022-07-29T14:36:39.388Z,3.33
2022-07-29T14:39:06.891Z,6.63
2022-07-29T14:41:34.563Z,7.35
2022-07-29T14:44:03.402Z,7.97
2022-07-29T14:46:30.989Z,6.88
2022-07-29T14:48:58.635Z,5.47
2022-07-29T14:51:32.184Z,8.57
2022-07-29T14:54:00.255Z,7.13
2022-07-29T14:56:36.914Z,4.60
2022-07-29T14:59:06.805Z,7.40
2022-07-29T15:01:34.372Z,7.03
2022-07-29T15:04:01.997Z,7.70
2022-07-29T15:06:29.736Z,9.48
2022-07-29T15:08:57.237Z,9.52
2022-07-29T15:11:24.752Z,5.53
2022-07-29T15:13:52.242Z,4.97
2022-07-29T15:16:21.107Z,6.03
2022-07-29T15:18:48.669Z,9.05
2022-07-29T15:21:16.395Z,12.50
2022-07-29T15:23:43.876Z,19.88
2022-07-29T15:26:11.444Z,21.15
2022-07-29T15:28:38.922Z,23.65
2022-07-29T15:31:06.431Z,16.80
2022-07-29T15:33:35.325Z,19.60
2022-07-29T15:36:02.829Z,20.33
2022-07-29T15:38:30.348Z,16.65
2022-07-29T15:40:57.939Z,20.65
2022-07-29T15:43:26.530Z,20.73
2022-07-29T15:46:12.963Z,18.70
2022-07-29T15:48:41.865Z,22.50
2022-07-29T15:51:09.535Z,22.65
2022-07-29T15:53:37.052Z,14.98
2022-07-29T15:56:04.822Z,21.45
2022-07-29T15:58:32.374Z,22.55
2022-07-29T16:00:59.907Z,14.68
2022-07-29T16:03:27.500Z,10.77
2022-07-29T16:05:56.326Z,11.85
2022-07-29T16:08:23.783Z,18.23
2022-07-29T16:10:51.320Z,12.40
2022-07-29T16:13:19.088Z,12.48
2022-07-29T16:16:02.706Z,21.45
2022-07-29T16:18:30.813Z,8.23
2022-07-29T16:21:00.157Z,5.97
2022-07-29T16:23:27.627Z,5.32
2022-07-29T16:25:59.998Z,4.68
2022-07-29T16:28:28.314Z,16.83
2022-07-29T16:30:55.784Z,12.80
2022-07-29T16:33:23.493Z,4.32
2022-07-29T16:35:51.261Z,6.68
2022-07-29T16:38:20.232Z,14.15
2022-07-29T16:40:47.694Z,4.63
2022-07-29T16:43:15.211Z,5.00
2022-07-29T16:45:46.176Z,8.90
2022-07-29T16:48:14.732Z,8.68
2022-07-29T16:50:43.276Z,8.52
2022-07-29T16:53:11.468Z,5.50
2022-07-29T16:55:42.415Z,4.53
2022-07-29T16:58:10.597Z,5.70
2022-07-29T17:00:38.810Z,3.88
2022-07-29T17:03:06.599Z,4.32
2022-07-29T17:05:52.214Z,6.45
2022-07-29T17:08:21.900Z,5.25
2022-07-29T17:10:51.280Z,7.95
2022-07-29T17:13:18.760Z,7.13
2022-07-29T17:15:46.214Z,9.32
2022-07-29T17:18:13.739Z,14.80
2022-07-29T17:20:41.922Z,19.63
2022-07-29T17:23:09.411Z,10.10
2022-07-29T17:25:36.960Z,25.55
2022-07-29T17:28:05.923Z,14.80
2022-07-29T17:30:33.376Z,23.38
2022-07-29T17:33:00.856Z,23.23
2022-07-29T17:35:46.016Z,25.25
2022-07-29T17:38:13.516Z,19.45
2022-07-29T17:40:41.040Z,23.35
2022-07-29T17:43:10.167Z,27.02
2022-07-29T17:45:49.948Z,15.95
2022-07-29T17:48:18.871Z,15.93
2022-07-29T17:50:47.246Z,24.30
2022-07-29T17:53:16.606Z,16.27
2022-07-29T17:55:45.548Z,13.20
2022-07-29T17:58:14.476Z,24.00
2022-07-29T18:00:42.194Z,20.58
2022-07-29T18:03:10.157Z,19.35
2022-07-29T18:05:37.798Z,13.70
2022-07-29T18:08:05.877Z,12.43
2022-07-29T18:10:33.523Z,8.88
2022-07-29T18:13:01.030Z,10.48
2022-07-29T18:15:29.891Z,10.23
2022-07-29T18:17:58.141Z,11.70
2022-07-29T18:20:25.920Z,10.02
2022-07-29T18:22:53.617Z,12.20
2022-07-29T18:25:21.220Z,13.75
2022-07-29T18:27:48.779Z,16.48
2022-07-29T18:30:16.408Z,19.83
2022-07-29T18:33:05.012Z,19.92
2022-07-29T18:35:33.001Z,18.25
2022-07-29T18:38:03.059Z,25.38
2022-07-29T18:40:31.348Z,23.17
2022-07-29T18:42:59.084Z,22.63
2022-07-29T18:45:28.749Z,27.27
2022-07-29T18:47:57.880Z,25.50
2022-07-29T18:50:29.383Z,30.23
2022-07-29T18:52:58.681Z,21.25
2022-07-29T18:55:27.043Z,26.45
2022-07-29T18:57:57.153Z,22.77
2022-07-29T19:00:26.416Z,24.85
2022-07-29T19:02:54.357Z,23.02
2022-07-29T19:05:23.964Z,22.60
2022-07-29T19:07:51.548Z,30.92
2022-07-29T19:10:19.234Z,20.52
2022-07-29T19:12:46.762Z,25.70
2022-07-29T19:15:20.464Z,36.42
2022-07-29T19:17:48.541Z,64.82
2022-07-29T19:20:16.598Z,71.60
2022-07-29T19:22:45.564Z,47.67
2022-07-29T19:25:13.231Z,58.20
2022-07-29T19:27:42.731Z,48.92
2022-07-29T19:30:11.230Z,46.67
2022-07-29T19:32:38.818Z,67.05
2022-07-29T19:35:25.553Z,94.28
2022-07-29T19:37:56.313Z,60.75
2022-07-29T19:40:23.855Z,55.38
2022-07-29T19:42:52.745Z,73.47
2022-07-29T19:45:21.177Z,62.25
2022-07-29T19:47:49.644Z,69.68
2022-07-29T19:50:17.863Z,46.92
2022-07-29T19:52:47.318Z,38.20
2022-07-29T19:55:16.462Z,36.80
2022-07-29T19:57:46.902Z,41.97
2022-07-29T20:00:15.932Z,46.05
2022-07-29T20:02:43.716Z,50.00
2022-07-29T20:05:12.158Z,47.65
2022-07-29T20:07:40.609Z,67.68
2022-07-29T20:10:09.837Z,55.70
2022-07-29T20:12:39.021Z,64.65
2022-07-29T20:15:08.434Z,57.58
2022-07-29T20:17:39.786Z,75.45
2022-07-29T20:20:09.453Z,66.95
2022-07-29T20:22:37.324Z,64.55
2022-07-29T20:25:05.903Z,58.28
2022-07-29T20:27:36.760Z,80.10
2022-07-29T20:30:07.199Z,55.78
2022-07-29T20:32:35.495Z,104.13
2022-07-29T20:35:03.053Z,94.30
2022-07-29T20:37:30.670Z,43.38
2022-07-29T20:39:58.179Z,78.50
2022-07-29T20:42:25.961Z,23.75
2022-07-29T20:44:53.902Z,39.65
2022-07-29T20:47:23.187Z,29.75
2022-07-29T20:49:51.067Z,35.20
2022-07-29T20:52:19.616Z,36.20
2022-07-29T20:54:47.376Z,40.35
2022-07-29T20:57:14.885Z,39.05
2022-07-29T20:59:45.824Z,41.72
2022-07-29T21:02:13.499Z,47.83
2022-07-29T21:04:43.600Z,25.13
2022-07-29T21:07:11.113Z,30.75
2022-07-29T21:09:38.624Z,21.15
2022-07-29T21:12:07.100Z,22.15
2022-07-29T21:14:47.803Z,28.13
2022-07-29T21:17:16.588Z,21.00
2022-07-29T21:19:46.987Z,22.17
2022-07-29T21:22:14.607Z,21.08
2022-07-29T21:24:42.109Z,17.90
2022-07-29T21:27:27.604Z,19.35
2022-07-29T21:29:55.388Z,18.30
2022-07-29T21:32:30.164Z,19.15
2022-07-29T21:34:59.426Z,19.27
2022-07-29T21:37:26.998Z,17.77
2022-07-29T21:39:54.533Z,17.15
2022-07-29T21:42:22.084Z,20.73
2022-07-29T21:44:49.662Z,18.55
2022-07-29T21:47:17.180Z,13.55
2022-07-29T21:49:46.386Z,14.77
2022-07-29T21:52:15.584Z,14.80
2022-07-29T21:54:45.728Z,15.55
2022-07-29T21:57:13.268Z,16.00
2022-07-29T21:59:40.843Z,16.85
2022-07-29T22:02:08.653Z,17.23
2022-07-29T22:04:36.578Z,12.55
2022-07-29T22:07:04.449Z,14.35
2022-07-29T22:09:33.514Z,16.17
2022-07-29T22:12:02.531Z,15.43
2022-07-29T22:14:30.073Z,13.60
2022-07-29T22:16:58.735Z,16.33
2022-07-29T22:19:27.410Z,22.48
2022-07-29T22:21:55.198Z,21.67
2022-07-29T22:24:22.721Z,44.67
2022-07-29T22:26:51.609Z,29.65
2022-07-29T22:29:19.270Z,39.65
2022-07-29T22:31:46.778Z,42.45
2022-07-29T22:34:14.379Z,25.92
2022-07-29T22:36:43.252Z,42.42
2022-07-29T22:39:10.769Z,30.90
2022-07-29T22:41:43.017Z,31.35
2022-07-29T22:44:11.913Z,26.08
2022-07-29T22:46:39.557Z,26.30
2022-07-29T22:49:07.178Z,40.03
2022-07-29T22:51:35.536Z,23.45
2022-07-29T22:54:03.737Z,24.75
2022-07-29T22:56:31.805Z,25.63
2022-07-29T22:58:59.336Z,34.65
2022-07-29T23:01:37.221Z,31.95
2022-07-29T23:04:05.826Z,40.03
2022-07-29T23:06:34.077Z,35.80
2022-07-29T23:09:01.626Z,23.45
2022-07-29T23:11:29.209Z,25.50
2022-07-29T23:13:56.744Z,37.28
2022-07-29T23:16:26.809Z,35.10
2022-07-29T23:18:56.212Z,21.67
2022-07-29T23:21:24.506Z,35.70
2022-07-29T23:23:52.001Z,30.50
2022-07-29T23:26:19.644Z,37.45
2022-07-29T23:28:47.259Z,32.72
2022-07-29T23:31:14.828Z,22.02
2022-07-29T23:33:42.767Z,20.17
2022-07-29T23:36:11.646Z,29.95
2022-07-29T23:38:40.779Z,27.88
2022-07-29T23:41:09.597Z,21.05
2022-07-29T23:43:37.237Z,28.40
2022-07-29T23:46:06.377Z,28.02
2022-07-29T23:48:34.638Z,37.33
2022-07-29T23:51:02.169Z,38.17
2022-07-29T23:53:30.992Z,36.08
2022-07-29T23:55:58.494Z,39.88
2022-07-29T23:58:25.953Z,32.35
